Impacts TAF Board INFO
FOR SITUATIONAL AWARENESS. NOT TO BE USED FOR FLIGHT PLANNING PURPOSES.
IDs:

KSTC - St Cloud Rgnl, MN, US

Issued at 1136 UTC 11 Dec 2017
Updated at 1507 UTC 11 Dec 2017
Potential Impact None Slight Moderate High
Time<<12/04Z 12/05Z 12/06Z 12/07Z 12/08Z 12/09Z 12/10Z 12/11Z 12/12Z 12/13Z 12/14Z 12/15Z 12/16Z>>
Type PRVL PRVL PRVL PRVL PRVL PRVL PRVL PRVL
VIS >6 >6 >6 >6 >6 >6 >6 >6
CIG -- -- -- -- -- -- -- --
Cover SKC SKC SKC SKC SKC SKC SKC SKC
FltCat VFR VFR VFR VFR VFR VFR VFR VFR
WX -- -- -- -- -- -- -- --
WDir 320 320 320 310 310 310 310 310
WSpd 12 12 12 8 8 8 8 8
WGst 18 18 18 -- -- -- -- --

Raw TAF
KSTC 111136Z 1112/1212 22006KT P6SM VCSH OVC060
  FM111400 30008KT P6SM VCSH OVC025
  FM111600 33016G28KT P6SM OVC018
  FM112300 33016G28KT P6SM FEW025
  FM120400 32012G18KT P6SM SKC
  FM120700 31008KT P6SM SKC


METAR Board
Radar Display
Forecast Discussion

FOR SITUATIONAL AWARENESS. NOT TO BE USED FOR FLIGHT PLANNING PURPOSES.